Weather observations for the past three days for
Hebbronville, Jim Hogg County Airport
Imperial (Metric)
Date Time (cdt) Wind (mph) Vis. (mi.) Weather Sky Cond. Temperature (ºF) Relative Humidity Wind Chill (°F) Heat Index (°F) Pressure Precipitation (in)
Air Dwpt 6 hour altimeter (in) sea level (mb) 1 hr 3 hr 6 hr
Max. Min.
02 14:15 NE 12 9.00 Mostly Cloudy FEW260 SCT310 BKN350 72.7 50 45% 30.12 0.0
02 13:55 NE 10 G 17 9.00 Partly Cloudy FEW210 SCT350 71.2 52.3 51% 30.12 0.0
02 13:35 NE 15 9.00 Partly Cloudy FEW210 SCT350 SCT370 71.1 54 55% 30.12 0.0
02 13:15 N 12 9.00 A Few Clouds FEW300 70.2 54.9 58% 30.13 0.0
02 12:55 N 8 G 17 9.00 Fair CLR 69.3 55.9 69.4 54.9 63% 30.14 0.0
02 12:35 N 12 9.00 Fair CLR 67.8 55.8 65% 30.15 0.0
02 12:15 N 10 G 17 9.00 A Few Clouds FEW028 66.7 56.1 69% 30.15 0.0
02 11:55 N 13 G 20 9.00 A Few Clouds FEW350 66.7 56.3 69% 30.15 0.0
02 11:35 NE 9 9.00 Fair CLR 64.6 55.6 73% 30.16 0.0
02 11:15 N 15 G 18 9.00 Fair CLR 63.7 55.4 75% 30.15 0.0
02 10:55 N 12 9.00 Fair CLR 62.4 55.2 77% 30.14 0.0
02 10:35 NE 10 9.00 Partly Cloudy SCT016 61.5 55.2 80% 30.14 0.0
02 10:15 N 9 10.00 Overcast OVC015 59.7 54.7 84% 30.14 0.0
02 09:55 N 13 9.00 Overcast OVC015 58.8 54.3 85% 30.14 0.0
02 09:35 NE 13 8.00 Overcast OVC016 57.6 53.8 87% 30.13 0.0
02 09:15 N 14 9.00 Overcast OVC016 57.4 53.4 87% 30.13 0.0
02 08:55 N 16 G 22 9.00 Mostly Cloudy BKN016 56.5 53.1 88% 30.12 0.0
02 08:35 N 15 G 23 10.00 Partly Cloudy SCT015 56.1 52.9 89% 30.11 0.0
02 08:15 N 13 10.00 Fair CLR 55.9 53.2 91% 30.1 0.0
02 07:55 N 14 9.00 Fair CLR 55.9 53.4 91% 30.09 0.0
02 07:35 N 13 9.00 Fair CLR 55.4 53.2 93% 30.08 0.0
02 07:15 N 12 9.00 Fair CLR 54.9 52.9 93% 30.07 0.0
02 06:55 N 13 10.00 Fair CLR 55 52.9 59.9 55 92% 30.05 0.0
02 06:35 N 13 10.00 Fair CLR 55 53.2 94% 30.04 0.0
02 06:15 N 15 G 23 10.00 Fair CLR 55.4 53.1 92% 30.03 0.0
02 05:55 N 14 10.00 A Few Clouds FEW012 56.1 54.5 94% 30.02 0.0
02 05:35 N 14 10.00 Partly Cloudy SCT012 56.5 54.9 94% 30.02 0.0
02 05:15 N 17 10.00 Overcast OVC012 57.6 56.1 95% 30.02 0.0
02 04:55 N 15 G 23 10.00 Overcast OVC012 58.5 57 95% 30.01 0.0
02 04:35 N 17 10.00 Overcast OVC012 58.5 57 95% 30.01 0.0
02 04:15 N 15 10.00 Overcast OVC013 58.6 57.2 95% 30.01 0.0
02 03:55 N 13 10.00 Mostly Cloudy BKN015 58.5 57.2 96% 30.01 0.0
02 03:35 N 14 10.00 Overcast OVC015 58.6 57.2 95% 30.02 0.0
02 03:15 N 14 10.00 Overcast OVC014 58.6 57 94% 30.02 0.0
02 02:55 N 12 10.00 Overcast OVC013 58.6 57.2 95% 30.02 0.0
02 02:35 N 10 10.00 Overcast OVC013 59 57.4 94% 30.04 0.0
02 02:15 N 8 10.00 Overcast OVC012 59.5 57.9 94% 30.03 0.0
02 01:55 N 13 10.00 Overcast OVC013 59.7 58.1 94% 30.02 0.0
02 01:35 N 12 10.00 Overcast OVC013 59.7 58.1 94% 30.01 0.0
02 01:15 N 12 10.00 Overcast OVC014 59.9 57.7 93% 30.01 0.0
02 00:55 N 13 9.00 Overcast OVC013 59.9 58.1 66.2 59.9 94% 30.01 0.0
02 00:35 N 14 10.00 Overcast OVC012 60.1 58.3 94% 30.01 0.0
02 00:15 N 17 G 22 10.00 Overcast OVC012 61 59.5 95% 30.01 0.0
01 23:55 N 13 10.00 Overcast OVC013 61 59.2 94% 30 0.0
01 23:35 N 10 10.00 Overcast OVC012 61 59.4 94% 30 0.0
01 23:15 NE 9 10.00 Overcast OVC014 61.3 59.9 95% 29.99 0.0
01 22:55 NE 12 10.00 Overcast OVC013 62.1 60.4 94% 29.97 0.0
01 22:35 N 15 G 22 10.00 Overcast OVC013 62.4 61.2 96% 29.96 0.0
01 22:15 N 16 10.00 Overcast OVC013 62.6 61.2 95% 29.95 0.0
01 21:55 N 14 G 22 10.00 Overcast OVC016 63.3 61.7 95% 29.94 0.0
01 21:35 N 20 G 24 10.00 Overcast BKN013 OVC020 63.7 62.2 95% 29.93 0.0
01 21:15 N 16 G 24 10.00 Overcast BKN013 OVC022 64.2 63 96% 29.91 0.0
01 20:55 N 15 G 22 10.00 Overcast BKN012 OVC020 64.4 63 95% 29.88 0.0
01 20:35 N 15 G 22 10.00 Mostly Cloudy BKN012 64.9 64.2 98% 29.86 0.0
01 20:15 N 13 G 21 10.00 A Few Clouds FEW013 64.8 64.2 98% 29.85 0.0
01 19:55 NE 15 G 23 10.00 Fair CLR 65.3 64.6 98% 29.83 0.0
01 19:35 NE 16 G 24 10.00 Fair CLR 65.7 64.6 96% 29.82 0.0
01 19:15 NE 15 G 24 10.00 Partly Cloudy SCT013 SCT021 66 64.9 96% 29.82 0.0
01 18:55 NE 17 G 26 10.00 Mostly Cloudy BKN014 BKN021 66.4 65.3 69.4 65.7 96% 29.81 0.0 0.05
01 18:35 NE 18 10.00 Mostly Cloudy BKN013 BKN021 66.4 65.3 96% 29.81 0.0
01 18:15 NE 16 G 26 10.00 Overcast BKN011 OVC019 66 65.5 98% 29.8 0.0
01 17:55 N 22 G 25 9.00 Overcast and Breezy BKN009 OVC016 66.4 65.8 98% 29.79 0.0
01 17:35 N 17 10.00 Overcast BKN009 OVC016 66.4 66.4 100% 29.79 0.0
01 17:15 N 15 G 23 10.00 Overcast OVC009 66.2 66.2 100% 29.79 0.0
01 16:55 N 17 8.00 Overcast BKN009 OVC016 66.2 66.2 100% 29.77 0.0
01 16:35 N 17 G 22 10.00 Overcast BKN008 OVC012 66.2 66.2 100% 29.76 0.0
01 16:15 N 13 G 23 10.00 Overcast OVC008 65.8 65.8 100% 29.76 0.0
01 15:55 N 16 10.00 Overcast OVC008 66.7 66.7 100% 29.75 0.0 0.05
01 15:35 N 13 G 21 10.00 Overcast OVC009 67.6 67.6 100% 29.75 0.0
01 15:15 N 16 9.00 Overcast BKN010 OVC019 68.4 68.4 100% 29.75 0.0
01 14:55 N 15 2.50 Fog/Mist BKN007 OVC014 68 68 100% 29.76 0.0 0.04
01 14:35 N 13 1.50 Light Drizzle Fog/Mist FEW002 BKN007 OVC016 68.2 68.2 100% 29.77 0.0 0.04
01 14:15 N 15 0.75 Light Rain Fog/Mist BKN001 BKN006 OVC014 68.5 68.5 100% 29.77 0.0 0.04
01 13:55 NW 12 0.75 Light Rain Fog/Mist OVC001 68.7 68.7 100% 29.76 0.0 0.01
01 13:35 N 8 4.00 Light Rain Fog/Mist OVC003 68.9 68.9 100% 29.76 0.0
01 12:55 E 7 10.00 Overcast OVC004 69.1 69.1 74.7 67.3 100% 29.75 0.0 0.01 0.07
01 12:35 E 6 10.00 Overcast OVC003 68.4 68.4 100% 29.76 0.0 0.01
01 12:15 NE 9 6.00 Light Rain Fog/Mist OVC002 67.5 67.5 100% 29.77 0.0 0.01
01 11:55 NE 8 5.00 Light Rain Fog/Mist OVC002 67.3 67.3 100% 29.79 0.0
01 11:35 N 10 5.00 Light Rain Fog/Mist OVC002 67.5 67.5 100% 29.79 0.0
01 11:15 NE 8 6.00 Light Rain Fog/Mist OVC002 67.5 67.5 100% 29.79 0.0
01 10:55 NE 12 10.00 Overcast OVC003 67.8 67.8 100% 29.78 0.0 0.03
01 10:35 NE 10 10.00 Overcast OVC003 67.8 67.8 100% 29.79 0.0 0.03
01 10:15 NE 14 6.00 Light Rain Fog/Mist OVC001 67.6 67.6 100% 29.78 0.0 0.03
01 09:55 NE 10 3.00 Light Rain Fog/Mist OVC002 69.8 69.8 100% 29.78 0.0 0.01 0.03
01 09:35 NE 7 6.00 Light Rain Fog/Mist OVC002 70.2 70.2 100% 29.78 0.0
01 08:55 E 10 8.00 Overcast BKN007 OVC012 74.3 74.3 100% 29.77 0.0 0.02
01 08:35 E 8 9.00 Overcast BKN007 OVC011 74.3 74.3 100% 29.77 0.0 0.02
01 08:15 SE 7 8.00 Overcast BKN005 OVC009 74.1 74.1 100% 29.77 0.0 0.02
01 07:55 E 5 6.00 Light Rain Fog/Mist BKN008 74.3 74.3 100% 29.77 0.0
01 07:35 E 9 8.00 A Few Clouds FEW008 74.3 74.3 100% 29.77 0.0
01 07:15 E 8 10.00 A Few Clouds FEW009 74.5 74.5 100% 29.77 0.0
01 06:55 E 7 10.00 Mostly Cloudy BKN008 74.5 74.5 75.7 74.3 100% 29.77 0.0
01 06:35 E 6 10.00 Overcast OVC008 74.5 74.5 100% 29.76 0.0
01 06:15 E 3 10.00 Overcast OVC007 74.3 74.3 100% 29.76 0.0
01 05:55 E 6 10.00 Overcast OVC008 74.3 74.3 100% 29.75 0.0
01 05:35 E 6 10.00 Overcast OVC007 74.3 74.3 100% 29.75 0.0
01 05:15 E 7 10.00 Mostly Cloudy BKN007 74.3 74.3 100% 29.74 0.0
01 04:55 E 7 10.00 A Few Clouds FEW007 74.5 74.5 100% 29.75 0.0
01 04:35 E 9 10.00 A Few Clouds FEW007 74.5 74.5 100% 29.74 0.0
01 04:15 E 8 10.00 A Few Clouds FEW008 74.7 74.7 100% 29.75 0.0
01 03:55 E 7 10.00 A Few Clouds FEW008 74.7 74.7 100% 29.76 0.0
01 03:35 E 8 10.00 Fair CLR 74.7 74.7 100% 29.75 0.0
01 03:15 E 9 10.00 A Few Clouds FEW008 74.7 74.7 100% 29.76 0.0
01 02:55 E 7 10.00 A Few Clouds FEW008 74.8 74.8 100% 29.76 0.0
01 02:35 E 6 10.00 A Few Clouds FEW008 75 74.8 99% 72 29.76 0.0
01 02:15 E 8 10.00 Fair CLR 74.8 74.8 100% 29.76 0.0
01 01:55 E 8 10.00 Fair CLR 75 75 100% 72 29.76 0.0
01 01:35 E 9 10.00 Fair CLR 75.2 74.8 99% 73 29.76 0.0
01 01:15 E 10 10.00 Fair CLR 75.6 75 98% 74 29.76 0.0
01 00:55 E 12 10.00 Fair CLR 75.7 75 80.1 75.7 98% 74 29.76 0.0
01 00:35 E 13 10.00 Fair CLR 75.7 74.8 97% 75 29.76 0.0
01 00:15 E 14 10.00 Fair CLR 75.7 74.8 97% 75 29.76 0.0
30 23:55 E 14 10.00 Fair CLR 75.9 74.8 96% 75 29.77 0.0
30 23:35 E 12 10.00 Fair CLR 76.1 74.7 95% 76 29.77 0.0
30 23:15 E 13 10.00 Fair CLR 76.5 74.8 95% 77 29.77 0.0
30 22:55 E 14 10.00 Fair CLR 76.6 75.2 95% 77 29.78 0.0
30 22:35 E 9 10.00 Fair CLR 77.2 75.6 95% 78 29.78 0.0
30 22:15 E 12 10.00 Fair CLR 77.2 75.7 95% 78 29.77 0.0
30 21:55 E 15 10.00 Fair CLR 77.4 75.6 94% 79 29.75 0.0
30 21:35 E 14 10.00 Fair CLR 77.7 75.7 94% 80 29.76 0.0
30 21:15 E 13 10.00 Fair CLR 78.1 75.9 93% 81 29.74 0.0
30 20:55 NE 15 10.00 Fair CLR 78.4 76.5 94% 82 29.72 0.0
30 20:35 E 13 G 20 10.00 Fair CLR 79 76.5 92% 83 29.73 0.0
30 20:15 NE 10 10.00 Fair CLR 79.5 74.3 84% 84 29.73 0.0
30 19:55 NE 14 10.00 Fair CLR 79.7 73.6 82% 84 29.71 0.0
30 19:35 NE 13 10.00 Fair CLR 79.5 73.6 82% 83 29.7 0.0
30 19:15 NE 13 10.00 Fair CLR 79.7 73.8 82% 84 29.7 0.0
30 18:55 NE 14 10.00 Fair CLR 80.4 74.5 84.9 76.8 82% 85 29.69 0.0
30 18:35 NE 15 10.00 Fair CLR 81.5 74.8 80% 88 29.69 0.0
30 18:15 NE 15 10.00 Fair CLR 81.5 74.8 80% 88 29.68 0.0
30 17:55 NE 14 10.00 Fair CLR 82 75.2 80% 89 29.68 0.0
30 17:35 NE 15 G 21 10.00 Fair CLR 82.8 75.4 78% 90 29.68 0.0
30 17:15 NE 15 10.00 Fair CLR 83.3 75.4 77% 91 29.69 0.0
30 16:55 NE 13 10.00 A Few Clouds FEW370 84 75.7 76% 93 29.68 0.0
30 16:35 NE 14 10.00 Fair CLR 84.2 75.9 76% 93 29.68 0.0
30 16:15 NE 12 10.00 Fair CLR 84.7 76.5 76% 95 29.69 0.0
30 15:55 NE 14 10.00 A Few Clouds FEW320 84.2 76.8 79% 94 29.7 0.0
30 15:35 NE 13 10.00 A Few Clouds FEW330 83.8 77 80% 94 29.7 0.0
30 15:15 NE 10 10.00 A Few Clouds FEW360 82.6 77 83% 91 29.71 0.0
30 14:55 NE 13 10.00 A Few Clouds FEW300 81.3 76.8 86% 89 29.73 0.0
30 14:35 NE 12 10.00 A Few Clouds FEW300 79.9 76.6 90% 85 29.73 0.0
30 14:15 NE 7 9.00 Fair CLR 80.4 77.2 90% 87 29.74 0.0
30 13:55 NE 5 8.00 Fair CLR 80.2 77.5 92% 87 29.76 0.0
30 13:35 E 7 7.00 Fair CLR 79 77.2 94% 83 29.76 0.0
30 13:15 NE 3 5.00 Fog/Mist FEW006 77.5 77.2 99% 79 29.77 0.0
30 12:55 E 3 4.00 Fog/Mist FEW004 76.5 76.5 76.8 74.7 100% 76 29.78 0.0
30 12:35 E 5 4.00 Fog/Mist SCT005 76.1 76.1 100% 75 29.79 0.0
30 12:15 E 6 3.00 Fog/Mist FEW002 BKN006 75.6 75.6 100% 74 29.79 0.0
30 11:55 E 6 2.00 Light Rain Fog/Mist OVC005 75.4 75.4 100% 73 29.8 0.0
30 11:35 E 7 4.00 Fog/Mist BKN007 76.1 76.1 100% 75 29.8 0.0
30 11:15 E 7 5.00 Fog/Mist FEW002 76.6 76.3 99% 77 29.8 0.0
30 10:55 E 7 6.00 Fog/Mist CLR 76.6 75.9 98% 77 29.8 0.0
30 10:35 E 8 6.00 Fog/Mist CLR 76.6 75.9 98% 77 29.8 0.0
30 10:15 E 10 7.00 Fair CLR 76.6 75.9 98% 77 29.8 0.0
30 09:55 E 7 7.00 Fair CLR 76.3 75.9 99% 76 29.81 0.0
30 09:35 E 9 6.00 Fog/Mist CLR 75.9 75.9 100% 75 29.8 0.0
30 09:15 E 6 6.00 Fog/Mist CLR 75.6 75.6 100% 74 29.81 0.0
30 08:55 E 7 6.00 Fog/Mist CLR 75.4 75.4 100% 73 29.8 0.0
30 08:35 E 8 7.00 Fair CLR 75.2 75.2 100% 73 29.81 0.0
30 08:15 E 6 7.00 Fair CLR 75 75 100% 72 29.81 0.0
30 07:55 NE 6 7.00 Fair CLR 74.8 74.8 100% 29.81 0.0
30 07:35 E 6 6.00 Fog/Mist CLR 75 75 100% 72 29.8 0.0
30 07:15 E 7 7.00 Fair CLR 74.7 74.7 100% 29.79 0.0
30 06:55 E 7 8.00 Fair CLR 74.7 74.7 76.6 73.9 100% 29.77 0.0
30 06:35 E 8 8.00 Fair CLR 74.7 74.7 100% 29.76 0.0
30 06:15 SE 10 8.00 Fair CLR 74.7 74.7 100% 29.76 0.0
30 05:55 SE 9 9.00 A Few Clouds FEW006 74.7 74.7 100% 29.76 0.0
30 05:35 E 8 9.00 A Few Clouds FEW006 74.7 74.7 100% 29.76 0.0
30 05:15 E 8 8.00 A Few Clouds FEW006 74.7 74.7 100% 29.77 0.0
30 04:55 E 10 9.00 Partly Cloudy SCT006 74.5 74.5 100% 29.77 0.0
30 04:35 E 8 8.00 Mostly Cloudy BKN006 74.5 74.5 100% 29.78 0.0
30 04:15 E 8 8.00 Overcast OVC005 74.5 74.5 100% 29.77 0.0
30 03:55 E 12 8.00 Overcast OVC004 74.3 74.3 100% 29.78 0.0
30 03:35 SE 8 8.00 Overcast OVC004 73.9 73.9 100% 29.78 0.0
30 03:15 E 13 8.00 Overcast OVC005 73.9 73.9 100% 29.78 0.0
30 02:55 E 7 8.00 Fair CLR 74.3 74.3 100% 29.77 0.0
30 02:35 E 6 8.00 Fair CLR 73.9 73.9 100% 29.77 0.0
30 02:15 E 6 10.00 Fair CLR 74.3 74.3 100% 29.78 0.0
30 01:55 E 6 9.00 Fair CLR 75.7 75.2 98% 74 29.78 0.0
30 01:35 SE 6 10.00 Fair CLR 75.6 75 98% 74 29.79 0.0
30 01:15 E 6 10.00 Fair CLR 76.6 75.2 95% 77 29.79 0.0
30 00:55 SE 6 10.00 Fair CLR 77.2 75.4 93 77.2 94% 78 29.79 0.0
30 00:35 E 6 10.00 Fair CLR 77.4 75.4 94% 79 29.8 0.0
30 00:15 SE 6 10.00 Fair CLR 77.4 75.2 93% 79 29.81 0.0
29 23:55 SE 7 10.00 Fair CLR 78.4 75.2 90% 82 29.8 0.0
29 23:35 SE 7 10.00 Fair CLR 78.6 75.4 90% 82 29.8 0.0
29 23:15 SE 7 10.00 Fair CLR 79.2 75.4 88% 83 29.8 0.0
29 22:55 SE 8 10.00 Fair CLR 80.2 75.6 86% 86 29.79 0.0
29 22:35 SE 10 10.00 Fair CLR 80.6 75.7 85% 86 29.79 0.0
29 22:15 SE 13 10.00 Fair CLR 81.5 75.9 83% 88 29.79 0.0
29 21:55 SE 12 10.00 Fair CLR 82.4 76.1 81% 90 29.78 0.0
29 21:35 E 13 10.00 Fair CLR 83.1 76.3 80% 92 29.77 0.0
29 21:15 E 10 10.00 Fair CLR 84.2 76.5 78% 94 29.77 0.0
29 20:55 SE 12 10.00 Fair CLR 85.5 76.1 74% 95 29.77 0.0
29 20:35 SE 12 10.00 Fair CLR 86.5 75.9 71% 97 29.76 0.0
29 20:15 SE 15 G 20 10.00 Fair CLR 88.5 75 64% 99 29.73 0.0
29 19:55 SE 5 10.00 Fair CLR 90.5 69.6 50% 96 29.72 0.0
29 19:35 Vrbl 5 9.00 Fair CLR 91 69.4 49% 96 29.71 0.0
29 19:15 SE 7 10.00 Fair CLR 92.3 68.9 46% 97 29.71 0.0
29 18:55 SE 7 10.00 Fair CLR 93.4 68.7 96.1 90.7 45% 98 29.71 0.0
29 18:35 S 7 10.00 Fair CLR 93.7 69.4 45% 99 29.7 0.0
29 18:15 SE 5 10.00 Fair CLR 94.1 68.4 43% 99 29.7 0.0
29 17:55 S 6 10.00 Fair CLR 95.7 68.9 42% 101 29.7 0.0
29 17:35 S 9 10.00 Fair CLR 95.5 69.8 43% 102 29.7 0.0
29 17:15 S 7 10.00 Fair CLR 96.1 70.5 44% 103 29.7 0.0
29 16:55 S 8 10.00 Fair CLR 95.5 71.1 45% 103 29.72 0.0
29 16:35 S 9 10.00 Fair CLR 95.2 71.1 46% 103 29.72 0.0
29 16:15 S 9 10.00 Fair CLR 95.2 71.1 46% 103 29.73 0.0
29 15:55 S 8 10.00 A Few Clouds FEW380 93.9 70.9 47% 101 29.75 0.0
29 15:35 Vrbl 6 10.00 Fair CLR 94.1 70.7 47% 101 29.76 0.0
29 15:15 S 10 10.00 Fair CLR 93.9 70.5 47% 101 29.76 0.0
29 14:55 S 9 9.00 Fair CLR 94.6 71.6 47% 103 29.78 0.0
29 14:35 Vrbl 7 9.00 A Few Clouds FEW320 94.5 72.5 49% 103 29.78 0.0
Date Time (cdt) Wind (mph) Vis. (mi.) Weather Sky Cond. Air Dwpt Max. Min. Relative Humidity Wind Chill (°F) Heat Index (°F) altimeter (in) sea level (mb) 1 hr 3 hr 6 hr
6 hour
Temperature (ºF) Pressure Precipitation (in)